Shep, Texas
Current Conditions -  °F | °C
As of 7:58 PM on Monday 24 Nov 2014 (Local Time) from KDYS Reporting Station
Clear Clear  
Wind Chill: 43°   Ceiling: Unl
Heat Index: 43°   Visibility: 10mi
Dew Point: 29°   Wind: 3mph
Humidity: 57%   Direction: 220°SW
Pressure: 30.1"   Gusts: NA
Location:  32.0181°N, 100.153°W
Report Text: KDYS 250158Z AUTO 22003KT 10SM CLR 06/M02 A3010 RMK AO2 SLP198 T00611018 $
Loading
Personal Weather Stations






























Interactive Weather Map New forecast layout! Learn more

10-Day Weather Forecast

Advertisements
Track Severe Weather on mobile